KVPZ/VPZ METAR and TAF weather

Enter ICAO airport designator
Station Type Date Time Source
KVPZ METAR 2019/10/15 20:56 UTC NOAA

KVPZ 152056Z AUTO 19013G25KT 10SM CLR 21/12 A2972 RMK AO2 PK WND 20027/2018 SLP067 T02060117 56034


Station Type Date Time Source
KVPZ Decoded METAR 2019/10/15 20:56 UTC NOAA

VALPARAISO PORTER CO MUNI, IN, United States (KVPZ) 41-27N 087-00W 231M
Oct 15, 2019 - 04:56 PM EDT / 2019.10.15 2056 UTC
Wind: from the S (190 degrees) at 15 MPH (13 KT) gusting to 29 MPH (25 KT):0
Visibility: 10 mile(s):0
Sky conditions: clear
Temperature: 69.1 F (20.6 C)
Dew Point: 53.1 F (11.7 C)
Relative Humidity: 56%
Pressure (altimeter): 29.72 in. Hg (1006 hPa)
Pressure tendency: 0.10 inches (3.4 hPa) lower than three hours ago
ob: KVPZ 152056Z AUTO 19013G25KT 10SM CLR 21/12 A2972 RMK AO2 PK WND 20027/2018 SLP067 T02060117 56034
cycle: 21

Station Type Date Time Source
KVPZ TAF UTC NOAA

Error!

Example: see airport list